createdAt,value
2023-03-26T00:02:17.637Z,99589.81
2023-03-26T00:04:47.770Z,99586.63
2023-03-26T00:07:19.029Z,99592.41
2023-03-26T00:09:49.121Z,99598.16
2023-03-26T00:12:19.226Z,99607.44
2023-03-26T00:14:55.400Z,99612.28
2023-03-26T00:17:25.526Z,99604.69
2023-03-26T00:19:57.287Z,99612.63
2023-03-26T00:22:27.301Z,99610.72
2023-03-26T00:24:59.548Z,99604.44
2023-03-26T00:27:29.735Z,99604.94
2023-03-26T00:30:04.206Z,99618.34
2023-03-26T00:32:34.495Z,99612.88
2023-03-26T00:35:08.842Z,99614.84
2023-03-26T00:37:38.815Z,99619.00
2023-03-26T00:40:13.608Z,99612.06
2023-03-26T00:42:43.627Z,99616.97
2023-03-26T00:45:17.344Z,99604.94
2023-03-26T00:47:47.678Z,99604.25
2023-03-26T00:50:19.966Z,99604.75
2023-03-26T00:52:55.917Z,99610.88
2023-03-26T00:55:26.152Z,99615.22
2023-03-26T00:57:56.524Z,99609.28
2023-03-26T01:00:35.048Z,99614.69
2023-03-26T01:03:06.165Z,99601.56
2023-03-26T01:05:51.642Z,99610.16
2023-03-26T01:08:30.825Z,99604.59
2023-03-26T01:11:07.734Z,99604.13
2023-03-26T01:13:42.280Z,99613.16
2023-03-26T01:16:25.431Z,99608.59
2023-03-26T01:18:59.028Z,99613.56
2023-03-26T01:21:34.851Z,99618.38
2023-03-26T01:24:09.345Z,99617.22
2023-03-26T01:27:04.527Z,99615.84
2023-03-26T01:29:39.466Z,99633.31
2023-03-26T01:32:21.842Z,99629.22
2023-03-26T01:35:03.222Z,99621.44
2023-03-26T01:37:42.805Z,99627.38
2023-03-26T01:40:24.146Z,99633.53
2023-03-26T01:43:01.655Z,99628.78
2023-03-26T01:45:34.930Z,99627.22
2023-03-26T01:48:05.908Z,99628.22
2023-03-26T01:50:36.262Z,99641.63
2023-03-26T01:53:07.021Z,99638.34
2023-03-26T01:55:53.991Z,99632.69
2023-03-26T01:58:34.439Z,99631.88
2023-03-26T02:01:17.004Z,99632.25
2023-03-26T02:03:53.602Z,99626.88
2023-03-26T02:06:30.987Z,99625.75
2023-03-26T02:09:04.718Z,99625.94
2023-03-26T02:11:38.439Z,99623.28
2023-03-26T02:14:10.012Z,99623.94
2023-03-26T02:16:40.272Z,99629.03
2023-03-26T02:19:15.949Z,99630.34
2023-03-26T02:21:49.518Z,99621.69
2023-03-26T02:24:20.348Z,99630.44
2023-03-26T02:26:54.715Z,99635.72
2023-03-26T02:29:27.102Z,99627.03
2023-03-26T02:31:57.903Z,99631.75
2023-03-26T02:34:28.072Z,99632.28
2023-03-26T02:36:58.052Z,99632.66
2023-03-26T02:39:29.982Z,99635.16
2023-03-26T02:42:10.241Z,99633.84
2023-03-26T02:44:47.921Z,99633.03
2023-03-26T02:47:23.573Z,99640.31
2023-03-26T02:49:56.811Z,99640.22
2023-03-26T02:52:49.944Z,99646.03
2023-03-26T02:55:20.706Z,99648.38
2023-03-26T02:57:54.914Z,99639.63
2023-03-26T03:00:31.525Z,99655.94
2023-03-26T03:03:24.469Z,99659.59
2023-03-26T03:06:03.555Z,99661.06
2023-03-26T03:08:39.139Z,99649.78
2023-03-26T03:11:14.674Z,99640.84
2023-03-26T03:13:54.016Z,99657.41
2023-03-26T03:16:29.793Z,99657.25
2023-03-26T03:19:03.087Z,99654.25
2023-03-26T03:21:39.484Z,99661.47
2023-03-26T03:24:11.964Z,99651.25
2023-03-26T03:26:50.472Z,99657.47
2023-03-26T03:29:41.778Z,99666.41
2023-03-26T03:32:35.054Z,99666.06
2023-03-26T03:35:08.145Z,99665.38
2023-03-26T03:37:38.422Z,99658.09
2023-03-26T03:40:11.762Z,99667.84
2023-03-26T03:42:42.568Z,99667.31
2023-03-26T03:45:17.209Z,99667.31
2023-03-26T03:48:09.656Z,99665.63
2023-03-26T03:51:01.622Z,99674.66
2023-03-26T03:53:40.515Z,99678.59
2023-03-26T03:56:14.847Z,99677.31
2023-03-26T03:59:11.537Z,99679.72
2023-03-26T04:01:46.842Z,99675.41
2023-03-26T04:04:26.941Z,99678.06
2023-03-26T04:07:02.267Z,99678.25
2023-03-26T04:10:00.173Z,99678.41
2023-03-26T04:12:34.511Z,99680.06
2023-03-26T04:15:06.594Z,99691.66
2023-03-26T04:17:42.968Z,99694.47
2023-03-26T04:20:16.208Z,99695.06
2023-03-26T04:22:49.449Z,99696.25
2023-03-26T04:25:21.950Z,99684.84
2023-03-26T04:28:01.314Z,99692.25
2023-03-26T04:31:05.670Z,99686.66
2023-03-26T04:33:50.217Z,99685.84
2023-03-26T04:36:21.496Z,99690.13
2023-03-26T04:38:53.764Z,99691.44
2023-03-26T04:41:30.357Z,99686.03
2023-03-26T04:44:05.774Z,99686.47
2023-03-26T04:46:43.753Z,99692.34
2023-03-26T04:49:28.424Z,99689.00
2023-03-26T04:51:58.796Z,99697.47
2023-03-26T04:54:48.331Z,99694.06
2023-03-26T04:57:26.055Z,99688.47
2023-03-26T05:00:02.993Z,99699.28
2023-03-26T05:02:40.143Z,99686.72
2023-03-26T05:05:13.901Z,99691.53
2023-03-26T05:07:44.067Z,99692.78
2023-03-26T05:10:20.398Z,99697.41
2023-03-26T05:13:01.530Z,99694.72
2023-03-26T05:15:36.580Z,99688.72
2023-03-26T05:18:12.826Z,99694.00
2023-03-26T05:20:48.456Z,99698.75
2023-03-26T05:23:18.693Z,99694.59
2023-03-26T05:25:55.480Z,99693.00
2023-03-26T05:28:28.417Z,99689.44
2023-03-26T05:31:21.521Z,99692.06
2023-03-26T05:33:55.280Z,99703.75
2023-03-26T05:36:28.640Z,99699.94
2023-03-26T05:39:27.731Z,99700.59
2023-03-26T05:42:20.822Z,99704.53
2023-03-26T05:45:22.898Z,99705.53
2023-03-26T05:47:55.079Z,99700.38
2023-03-26T05:50:27.459Z,99704.50
2023-03-26T05:53:04.976Z,99705.31
2023-03-26T05:55:58.196Z,99707.97
2023-03-26T05:58:54.693Z,99706.78
2023-03-26T06:01:54.798Z,99702.59
2023-03-26T06:05:04.547Z,99703.72
2023-03-26T06:07:54.395Z,99707.28
2023-03-26T06:10:27.346Z,99718.16
2023-03-26T06:12:57.567Z,99714.59
2023-03-26T06:15:27.770Z,99715.13
2023-03-26T06:18:03.431Z,99724.13
2023-03-26T06:21:12.343Z,99728.25
2023-03-26T06:23:53.104Z,99724.78
2023-03-26T06:26:43.804Z,99725.00
2023-03-26T06:29:34.116Z,99738.75
2023-03-26T06:32:19.989Z,99734.28
2023-03-26T06:34:56.576Z,99732.97
2023-03-26T06:37:27.418Z,99733.28
2023-03-26T06:40:02.610Z,99731.69
2023-03-26T06:43:07.032Z,99738.50
2023-03-26T06:46:00.646Z,99741.69
2023-03-26T06:48:43.587Z,99740.44
2023-03-26T06:51:43.765Z,99740.09
2023-03-26T06:54:13.762Z,99740.22
2023-03-26T06:56:51.699Z,99747.22
2023-03-26T06:59:42.766Z,99740.22
2023-03-26T07:02:31.655Z,99738.84
2023-03-26T07:05:20.711Z,99744.41
2023-03-26T07:08:21.596Z,99736.03
2023-03-26T07:11:22.488Z,99737.94
2023-03-26T07:14:15.703Z,99728.91
2023-03-26T07:17:17.203Z,99729.13
2023-03-26T07:20:14.719Z,99728.91
2023-03-26T07:22:46.254Z,99726.81
2023-03-26T07:25:21.458Z,99730.72
2023-03-26T07:28:20.636Z,99728.13
2023-03-26T07:31:27.793Z,99729.34
2023-03-26T07:34:31.437Z,99723.22
2023-03-26T07:37:30.418Z,99722.00
2023-03-26T07:40:31.837Z,99731.03
2023-03-26T07:43:42.358Z,99726.50
2023-03-26T07:46:14.667Z,99732.66
2023-03-26T07:49:09.738Z,99726.50
2023-03-26T07:51:57.922Z,99726.69
2023-03-26T07:54:50.594Z,99729.34
2023-03-26T07:57:47.704Z,99730.91
2023-03-26T08:00:48.900Z,99736.22
2023-03-26T08:03:53.595Z,99726.03
2023-03-26T08:06:58.313Z,99734.50
2023-03-26T08:10:04.695Z,99726.91
2023-03-26T08:12:58.130Z,99719.75
2023-03-26T08:15:38.117Z,99730.44
2023-03-26T08:18:27.909Z,99724.16
2023-03-26T08:21:01.963Z,99724.50
2023-03-26T08:23:50.898Z,99723.53
2023-03-26T08:26:33.021Z,99724.44
2023-03-26T08:29:12.419Z,99728.41
2023-03-26T08:31:44.852Z,99727.63
2023-03-26T08:34:16.105Z,99725.06
2023-03-26T08:36:48.748Z,99731.00
2023-03-26T08:39:19.901Z,99723.28
2023-03-26T08:42:18.294Z,99729.22
2023-03-26T08:45:22.035Z,99730.78
2023-03-26T08:48:26.716Z,99724.69
2023-03-26T08:51:41.870Z,99719.88
2023-03-26T08:54:35.033Z,99724.72
2023-03-26T08:57:26.101Z,99720.69
2023-03-26T09:00:18.201Z,99720.38
2023-03-26T09:03:12.622Z,99715.47
2023-03-26T09:06:06.211Z,99711.34
2023-03-26T09:09:05.817Z,99717.03
2023-03-26T09:11:55.609Z,99701.03
2023-03-26T09:14:57.167Z,99713.44
2023-03-26T09:17:59.652Z,99710.03
2023-03-26T09:21:02.929Z,99710.03
2023-03-26T09:24:04.500Z,99703.81
2023-03-26T09:26:50.441Z,99706.09
2023-03-26T09:29:57.740Z,99702.88
2023-03-26T09:32:52.107Z,99714.00
2023-03-26T09:35:41.740Z,99702.06
2023-03-26T09:38:35.357Z,99707.59
2023-03-26T09:41:12.903Z,99690.66
2023-03-26T09:44:09.448Z,99698.63
2023-03-26T09:46:58.860Z,99711.84
2023-03-26T09:49:46.120Z,99702.19
2023-03-26T09:52:38.403Z,99712.41
2023-03-26T09:55:50.403Z,99719.94
2023-03-26T09:58:36.577Z,99722.91
2023-03-26T10:01:14.821Z,99724.09
2023-03-26T10:03:56.579Z,99728.16
2023-03-26T10:06:39.461Z,99723.94
2023-03-26T10:09:23.981Z,99729.88
2023-03-26T10:12:12.893Z,99709.75
2023-03-26T10:14:55.391Z,99717.78
2023-03-26T10:17:44.119Z,99721.53
2023-03-26T10:21:00.259Z,99722.75
2023-03-26T10:23:48.131Z,99724.91
2023-03-26T10:26:39.495Z,99726.63
2023-03-26T10:29:42.763Z,99722.03
2023-03-26T10:32:23.240Z,99724.44
2023-03-26T10:35:05.852Z,99722.84
2023-03-26T10:37:52.737Z,99720.16
2023-03-26T10:40:30.355Z,99731.31
2023-03-26T10:43:34.078Z,99720.69
2023-03-26T10:46:33.812Z,99714.16
2023-03-26T10:49:26.780Z,99725.16
2023-03-26T10:52:00.337Z,99728.28
2023-03-26T10:54:43.660Z,99724.16
2023-03-26T10:57:27.486Z,99730.09
2023-03-26T11:00:01.059Z,99730.16
2023-03-26T11:02:33.017Z,99725.81
2023-03-26T11:05:28.904Z,99728.47
2023-03-26T11:08:05.176Z,99721.50
2023-03-26T11:10:49.505Z,99727.44
2023-03-26T11:13:28.592Z,99727.84
2023-03-26T11:16:06.051Z,99729.00
2023-03-26T11:18:46.679Z,99718.06
2023-03-26T11:21:27.344Z,99717.38
2023-03-26T11:24:14.542Z,99716.06
2023-03-26T11:27:15.170Z,99710.56
2023-03-26T11:29:54.007Z,99711.66
2023-03-26T11:32:29.095Z,99707.00
2023-03-26T11:35:04.357Z,99700.03
2023-03-26T11:37:38.104Z,99703.06
2023-03-26T11:40:20.395Z,99704.47
2023-03-26T11:42:58.953Z,99704.22
2023-03-26T11:45:31.366Z,99696.06
2023-03-26T11:48:11.043Z,99701.03
2023-03-26T11:50:48.138Z,99699.97
2023-03-26T11:53:29.198Z,99693.28
2023-03-26T11:56:15.087Z,99691.84
2023-03-26T11:58:54.843Z,99682.94
2023-03-26T12:01:30.751Z,99681.00
2023-03-26T12:04:07.336Z,99685.69
2023-03-26T12:06:37.437Z,99676.69
2023-03-26T12:09:18.797Z,99673.91
2023-03-26T12:11:52.858Z,99672.88
2023-03-26T12:14:29.046Z,99672.34
2023-03-26T12:17:05.884Z,99669.38
2023-03-26T12:19:40.398Z,99660.41
2023-03-26T12:22:30.776Z,99655.84
2023-03-26T12:25:22.389Z,99645.81
2023-03-26T12:27:55.829Z,99646.63
2023-03-26T12:30:31.263Z,99643.00
2023-03-26T12:33:03.758Z,99639.78
2023-03-26T12:35:36.047Z,99635.56
2023-03-26T12:38:25.870Z,99631.91
2023-03-26T12:44:44.852Z,99633.69
2023-03-26T12:44:56.466Z,99637.34
2023-03-26T12:47:58.100Z,99626.72
2023-03-26T12:49:48.198Z,99628.59
2023-03-26T12:52:38.407Z,99628.78
2023-03-26T12:55:23.814Z,99632.38
2023-03-26T12:58:14.072Z,99621.38
2023-03-26T13:00:56.285Z,99632.16
2023-03-26T13:03:46.589Z,99626.97
2023-03-26T13:06:29.441Z,99627.38
2023-03-26T13:09:22.710Z,99619.34
2023-03-26T13:12:03.868Z,99628.69
2023-03-26T13:14:51.624Z,99621.97
2023-03-26T13:17:29.094Z,99618.66
2023-03-26T13:20:12.657Z,99620.84
2023-03-26T13:22:55.589Z,99616.03
2023-03-26T13:25:34.700Z,99610.34
2023-03-26T13:28:18.090Z,99611.88
2023-03-26T13:30:58.171Z,99611.41
2023-03-26T13:33:45.760Z,99603.19
2023-03-26T13:36:25.152Z,99605.47
2023-03-26T13:39:10.253Z,99601.66
2023-03-26T13:42:18.886Z,99599.81
2023-03-26T13:45:04.675Z,99601.75
2023-03-26T13:47:48.276Z,99593.19
2023-03-26T13:50:28.376Z,99597.78
2023-03-26T13:53:21.549Z,99596.28
2023-03-26T13:55:57.347Z,99604.00
2023-03-26T13:58:35.084Z,99601.88
2023-03-26T14:01:10.309Z,99598.41
2023-03-26T14:03:52.642Z,99602.75
2023-03-26T14:06:42.386Z,99603.97
2023-03-26T14:09:22.982Z,99598.72
2023-03-26T14:12:04.545Z,99607.34
2023-03-26T14:14:43.601Z,99594.84
2023-03-26T14:17:21.054Z,99608.81
2023-03-26T14:20:24.724Z,99606.63
2023-03-26T14:23:14.852Z,99603.72
2023-03-26T14:26:11.622Z,99608.31
2023-03-26T14:29:19.610Z,99600.19
2023-03-26T14:31:59.838Z,99592.28
2023-03-26T14:34:39.960Z,99595.88
2023-03-26T14:37:33.122Z,99597.59
2023-03-26T14:40:34.256Z,99598.75
2023-03-26T14:43:34.118Z,99592.13
2023-03-26T14:46:28.486Z,99581.91
2023-03-26T14:49:32.776Z,99585.13
2023-03-26T14:52:08.610Z,99585.66
2023-03-26T14:54:43.623Z,99581.78
2023-03-26T14:57:41.948Z,99586.59
2023-03-26T15:00:44.582Z,99582.72
2023-03-26T15:04:05.046Z,99577.16
2023-03-26T15:07:07.703Z,99587.22
2023-03-26T15:10:10.166Z,99585.91
2023-03-26T15:13:10.270Z,99588.06
2023-03-26T15:16:17.922Z,99576.59
2023-03-26T15:19:32.534Z,99577.13
2023-03-26T15:22:41.674Z,99581.72
2023-03-26T15:25:48.615Z,99572.38
2023-03-26T15:28:59.570Z,99575.69
2023-03-26T15:31:48.026Z,99566.91
2023-03-26T15:34:45.453Z,99567.50
2023-03-26T15:37:41.457Z,99570.78
2023-03-26T15:40:40.556Z,99569.72
2023-03-26T15:43:17.898Z,99573.88
2023-03-26T15:45:57.168Z,99572.69
2023-03-26T15:48:37.709Z,99566.09
2023-03-26T15:51:29.140Z,99565.94
2023-03-26T15:54:08.084Z,99564.09
2023-03-26T15:57:01.893Z,99570.75
2023-03-26T15:59:47.647Z,99569.09
2023-03-26T16:02:34.852Z,99569.78
2023-03-26T16:05:30.181Z,99568.81
2023-03-26T16:08:11.795Z,99564.16
2023-03-26T16:10:47.010Z,99561.75
2023-03-26T16:13:35.404Z,99565.66
2023-03-26T16:16:26.079Z,99564.03
2023-03-26T16:19:49.503Z,99556.25
2023-03-26T16:22:43.404Z,99573.91
2023-03-26T16:25:31.022Z,99580.13
2023-03-26T16:28:30.234Z,99565.97
2023-03-26T16:31:37.677Z,99576.25
2023-03-26T16:34:31.589Z,99580.16
2023-03-26T16:37:02.697Z,99588.34
2023-03-26T16:39:43.879Z,99583.00
2023-03-26T16:42:33.596Z,99587.53
2023-03-26T16:45:22.132Z,99589.19
2023-03-26T16:48:03.368Z,99590.41
2023-03-26T16:50:47.031Z,99590.59
2023-03-26T16:53:31.144Z,99595.28
2023-03-26T16:56:05.674Z,99593.25
2023-03-26T16:58:51.017Z,99593.66
2023-03-26T17:01:34.548Z,99601.44
2023-03-26T17:04:17.333Z,99597.75
2023-03-26T17:07:16.886Z,99594.25
2023-03-26T17:10:02.040Z,99603.03
2023-03-26T17:12:40.665Z,99614.47
2023-03-26T17:15:33.181Z,99609.91
2023-03-26T17:18:34.665Z,99609.47
2023-03-26T17:21:09.781Z,99610.66
2023-03-26T17:24:04.369Z,99611.47
2023-03-26T17:26:49.353Z,99610.47
2023-03-26T17:29:34.727Z,99608.84
2023-03-26T17:32:11.623Z,99612.31
2023-03-26T17:35:04.579Z,99613.97
2023-03-26T17:37:48.144Z,99609.66
2023-03-26T17:40:58.980Z,99616.81
2023-03-26T17:43:46.997Z,99620.91
2023-03-26T17:46:33.862Z,99627.88
2023-03-26T17:49:12.073Z,99628.69
2023-03-26T17:51:51.676Z,99629.09
2023-03-26T17:54:27.333Z,99633.59
2023-03-26T17:56:59.347Z,99628.69
2023-03-26T17:59:32.488Z,99639.72
2023-03-26T18:02:07.485Z,99641.19
2023-03-26T18:04:40.608Z,99638.13
2023-03-26T18:07:37.569Z,99634.84
2023-03-26T18:10:28.916Z,99639.13
2023-03-26T18:13:25.452Z,99646.28
2023-03-26T18:16:11.197Z,99648.66
2023-03-26T18:18:49.401Z,99644.31
2023-03-26T18:21:27.726Z,99643.47
2023-03-26T18:23:59.538Z,99646.72
2023-03-26T18:26:36.937Z,99649.78
2023-03-26T18:29:19.675Z,99650.34
2023-03-26T18:32:00.719Z,99642.97
2023-03-26T18:34:36.662Z,99650.94
2023-03-26T18:37:18.632Z,99641.66
2023-03-26T18:40:10.090Z,99651.03
2023-03-26T18:42:46.413Z,99642.63
2023-03-26T18:45:38.075Z,99663.06
2023-03-26T18:48:17.987Z,99658.56
2023-03-26T18:50:49.652Z,99656.06
2023-03-26T18:53:23.274Z,99656.41
2023-03-26T18:55:59.403Z,99663.91
2023-03-26T18:58:31.531Z,99654.66
2023-03-26T19:01:17.176Z,99662.38
2023-03-26T19:03:58.114Z,99660.72
2023-03-26T19:06:28.964Z,99664.00
2023-03-26T19:09:01.523Z,99660.25
2023-03-26T19:11:32.951Z,99653.81
2023-03-26T19:14:09.388Z,99662.06
2023-03-26T19:16:45.934Z,99661.19
2023-03-26T19:19:25.241Z,99666.81
2023-03-26T19:21:57.277Z,99660.19
2023-03-26T19:24:30.113Z,99664.50
2023-03-26T19:27:03.876Z,99666.25
2023-03-26T19:29:36.764Z,99665.19
2023-03-26T19:32:18.599Z,99666.56
2023-03-26T19:34:51.525Z,99663.84
2023-03-26T19:37:25.281Z,99665.03
2023-03-26T19:39:58.645Z,99670.13
2023-03-26T19:42:43.434Z,99665.94
2023-03-26T19:45:19.503Z,99667.22
2023-03-26T19:50:57.768Z,99675.38
2023-03-26T19:51:18.448Z,99665.59
2023-03-26T19:53:34.930Z,99674.25
2023-03-26T19:56:18.186Z,99674.91
2023-03-26T19:58:48.718Z,99674.63
2023-03-26T20:01:34.688Z,99683.94
2023-03-26T20:04:07.641Z,99694.28
2023-03-26T20:06:44.332Z,99695.91
2023-03-26T20:09:21.504Z,99694.97
2023-03-26T20:11:52.707Z,99696.34
2023-03-26T20:14:26.381Z,99700.25
2023-03-26T20:16:56.975Z,99702.44
2023-03-26T20:19:27.515Z,99711.38
2023-03-26T20:22:00.591Z,99708.09
2023-03-26T20:24:31.310Z,99708.44
2023-03-26T20:27:04.366Z,99715.47
2023-03-26T20:29:37.207Z,99723.75
2023-03-26T20:32:09.710Z,99719.97
2023-03-26T20:34:52.102Z,99725.63
2023-03-26T20:37:31.696Z,99729.94
2023-03-26T20:40:09.315Z,99734.13
2023-03-26T20:42:39.534Z,99734.81
2023-03-26T20:45:19.614Z,99733.53
2023-03-26T20:47:51.824Z,99734.72
2023-03-26T20:50:24.739Z,99732.59
2023-03-26T20:52:57.382Z,99735.28
2023-03-26T20:55:28.497Z,99744.81
2023-03-26T20:57:58.758Z,99744.38
2023-03-26T21:00:32.524Z,99742.09
2023-03-26T21:03:02.703Z,99736.16
2023-03-26T21:05:32.954Z,99746.22
2023-03-26T21:08:30.342Z,99741.94
2023-03-26T21:11:03.630Z,99750.38
2023-03-26T21:13:41.147Z,99745.72
2023-03-26T21:16:14.697Z,99750.19
2023-03-26T21:18:45.509Z,99756.13
2023-03-26T21:21:28.692Z,99760.03
2023-03-26T21:24:12.908Z,99760.31
2023-03-26T21:26:47.587Z,99767.63
2023-03-26T21:29:18.211Z,99762.97
2023-03-26T21:31:48.895Z,99772.06
2023-03-26T21:34:20.172Z,99773.59
2023-03-26T21:36:50.979Z,99774.16
2023-03-26T21:39:27.944Z,99772.84
2023-03-26T21:42:05.276Z,99769.53
2023-03-26T21:44:37.071Z,99772.03
2023-03-26T21:47:09.823Z,99776.03
2023-03-26T21:49:40.940Z,99778.38
2023-03-26T21:52:18.819Z,99769.28
2023-03-26T21:54:52.358Z,99781.84
2023-03-26T21:57:45.522Z,99777.25
2023-03-26T22:00:18.719Z,99778.41
2023-03-26T22:03:02.690Z,99776.59
2023-03-26T22:05:42.159Z,99782.75
2023-03-26T22:08:23.028Z,99773.69
2023-03-26T22:10:55.993Z,99787.88
2023-03-26T22:13:26.153Z,99787.25
2023-03-26T22:15:56.966Z,99788.59
2023-03-26T22:18:30.351Z,99786.59
2023-03-26T22:21:00.979Z,99795.50
2023-03-26T22:23:34.346Z,99796.31
2023-03-26T22:26:10.370Z,99794.19
2023-03-26T22:28:40.360Z,99798.97
2023-03-26T22:31:13.141Z,99799.31
2023-03-26T22:33:43.432Z,99802.59
2023-03-26T22:36:22.397Z,99791.41
2023-03-26T22:38:56.874Z,99797.69
2023-03-26T22:41:29.807Z,99800.94
2023-03-26T22:44:12.937Z,99799.47
2023-03-26T22:46:51.713Z,99798.97
2023-03-26T22:49:21.864Z,99802.28
2023-03-26T22:51:53.010Z,99813.16
2023-03-26T22:54:23.193Z,99811.34
2023-03-26T22:56:56.210Z,99805.75
2023-03-26T22:59:26.548Z,99811.34
2023-03-26T23:01:57.019Z,99810.53
2023-03-26T23:04:31.286Z,99812.84
2023-03-26T23:07:01.964Z,99813.31
2023-03-26T23:09:32.362Z,99823.66
2023-03-26T23:12:05.080Z,99826.81
2023-03-26T23:14:36.384Z,99816.56
2023-03-26T23:17:06.581Z,99815.59
2023-03-26T23:19:37.229Z,99821.19
2023-03-26T23:22:07.256Z,99824.47
2023-03-26T23:24:37.986Z,99825.47
2023-03-26T23:27:10.926Z,99828.94
2023-03-26T23:29:42.300Z,99835.03
2023-03-26T23:32:23.415Z,99834.53
2023-03-26T23:34:55.933Z,99845.06
2023-03-26T23:37:26.938Z,99848.53
2023-03-26T23:39:58.832Z,99851.81
2023-03-26T23:42:31.408Z,99856.56
2023-03-26T23:45:01.403Z,99860.97
2023-03-26T23:47:34.591Z,99862.91
2023-03-26T23:50:05.379Z,99874.34
2023-03-26T23:52:37.596Z,99875.03
2023-03-26T23:55:08.802Z,99880.50
2023-03-26T23:57:41.588Z,99890.88
